Time;durP1;ratioP1;P1;durP2;ratioP2;P2;SDS_P1;SDS_P2;PMS_P1;PMS_P2;Temp;Humidity;BMP_temperature;BMP_pressure;BME280_temperature;BME280_humidity;BME280_pressure;Samples;Min_cycle;Max_cycle;Signal;HPM_P1;HPM_P2
2022/12/13 00:01:15;;;;;;;3.45;3.15;;;;;;;-4.91;100.00;100805.44;6035612;23;20430;-75
2022/12/13 00:03:42;;;;;;;2.67;2.58;;;;;;;-4.82;100.00;100828.56;6008141;23;20050;-75
2022/12/13 00:06:11;;;;;;;3.65;3.35;;;;;;;-5.05;100.00;100801.81;6006183;23;20038;-74
2022/12/13 00:08:38;;;;;;;5.35;4.20;;;;;;;-5.07;100.00;100817.16;6012324;23;20023;-74
2022/12/13 00:11:07;;;;;;;4.00;3.65;;;;;;;-5.58;100.00;100736.31;6041369;23;19998;-73
2022/12/13 00:13:33;;;;;;;2.70;2.60;;;;;;;-5.28;100.00;100779.34;6009096;23;20364;-74
2022/12/13 00:16:05;;;;;;;4.15;3.75;;;;;;;-6.30;100.00;100625.41;6034431;23;20017;-74
2022/12/13 00:18:33;;;;;;;2.42;2.33;;;;;;;-5.07;100.00;100823.97;6017353;23;20022;-74
2022/12/13 00:21:04;;;;;;;3.03;2.75;;;;;;;-5.28;100.00;100806.63;6053367;23;20068;-74
2022/12/13 00:23:31;;;;;;;4.45;3.97;;;;;;;-5.18;100.00;100821.25;6009915;23;20290;-73
2022/12/13 00:26:05;;;;;;;5.43;4.15;;;;;;;-5.83;100.00;100724.88;6034902;23;20364;-74
2022/12/13 00:28:32;;;;;;;2.90;2.80;;;;;;;-5.64;100.00;100783.09;5992696;23;20027;-73
2022/12/13 00:30:59;;;;;;;6.20;4.20;;;;;;;-5.56;100.00;100779.78;6016173;23;20022;-73
2022/12/13 00:33:46;;;;;;;3.33;3.13;;;;;;;-5.68;100.00;100767.69;6010634;23;20257;-74
2022/12/13 00:36:12;;;;;;;7.18;3.85;;;;;;;-5.89;100.00;100729.91;6008947;23;20012;-73
2022/12/13 00:38:39;;;;;;;3.15;3.05;;;;;;;-5.57;100.00;100785.72;6022196;23;20081;-73
2022/12/13 00:41:23;;;;;;;8.73;8.13;;;;;;;-5.63;100.00;100783.97;6006830;23;20779;-77
2022/12/13 00:43:51;;;;;;;3.22;3.10;;;;;;;-5.96;100.00;100728.09;5967372;23;20029;-74
2022/12/13 00:46:21;;;;;;;4.38;3.15;;;;;;;-5.46;100.00;100815.75;6007960;23;20011;-74
2022/12/13 00:48:50;;;;;;;3.63;3.42;;;;;;;-5.46;100.00;100822.56;6006508;23;20058;-74
2022/12/13 00:51:17;;;;;;;3.22;3.08;;;;;;;-5.54;100.00;100806.25;6035537;23;20049;-74
2022/12/13 00:53:43;;;;;;;6.28;3.35;;;;;;;-5.63;100.00;100797.59;6014005;23;20042;-75
2022/12/13 00:56:12;;;;;;;3.40;3.13;;;;;;;-5.54;100.00;100811.38;6040803;23;20561;-75
2022/12/13 00:58:40;;;;;;;3.58;3.15;;;;;;;-5.57;100.00;100804.50;6013811;23;20113;-73
2022/12/13 01:01:10;;;;;;;3.25;3.05;;;;;;;-6.50;100.00;100664.25;6029624;23;20547;-74
2022/12/13 01:03:38;;;;;;;2.58;2.45;;;;;;;-5.72;100.00;100796.59;6008560;23;20643;-74
2022/12/13 01:06:14;;;;;;;3.55;3.28;;;;;;;-5.63;100.00;100804.41;6033250;23;20459;-74
2022/12/13 01:08:42;;;;;;;2.55;2.42;;;;;;;-6.29;100.00;100709.72;6008384;23;20027;-73
2022/12/13 01:11:09;;;;;;;2.40;2.28;;;;;;;-5.88;100.00;100759.72;6027811;23;20019;-73
2022/12/13 01:13:36;;;;;;;14.88;3.55;;;;;;;-5.69;100.00;100806.84;5985693;23;20094;-76
2022/12/13 01:16:06;;;;;;;4.22;3.90;;;;;;;-5.84;100.00;100787.03;6050129;23;20509;-75
2022/12/13 01:18:32;;;;;;;4.38;3.10;;;;;;;-5.73;100.00;100803.41;5981391;23;20015;-74
2022/12/13 01:21:02;;;;;;;2.90;2.70;;;;;;;-5.73;100.00;100792.31;6044770;23;20738;-74
2022/12/13 01:23:29;;;;;;;2.30;2.20;;;;;;;-6.47;100.00;100682.16;6006565;23;20096;-73
2022/12/13 01:25:55;;;;;;;2.95;2.85;;;;;;;-6.70;100.00;100645.19;5997528;23;20041;-73
2022/12/13 01:28:23;;;;;;;2.70;2.60;;;;;;;-6.15;100.00;100768.69;6023227;23;20426;-74
2022/12/13 01:30:54;;;;;;;4.45;3.92;;;;;;;-5.84;100.00;100781.91;6032861;23;20512;-74
2022/12/13 01:33:21;;;;;;;3.00;2.80;;;;;;;-6.00;100.00;100754.44;6018242;23;20043;-74
2022/12/13 01:35:47;;;;;;;3.47;3.17;;;;;;;-6.59;100.00;100664.09;6052510;23;20029;-73
2022/12/13 01:38:14;;;;;;;4.07;3.78;;;;;;;-6.12;100.00;100745.72;6002325;23;20078;-73
2022/12/13 01:40:43;;;;;;;2.20;2.10;;;;;;;-6.45;100.00;100685.63;6002154;23;20023;-73
2022/12/13 01:43:14;;;;;;;2.85;2.75;;;;;;;-6.46;100.00;100694.09;6055292;23;21307;-73
2022/12/13 01:45:41;;;;;;;2.58;2.47;;;;;;;-6.11;100.00;100751.72;6047142;23;20559;-73
2022/12/13 01:48:18;;;;;;;3.80;3.60;;;;;;;-6.30;100.00;100738.63;6001726;23;20039;-73
2022/12/13 01:50:50;;;;;;;5.75;3.20;;;;;;;-6.33;100.00;100720.72;6009899;23;20023;-73
2022/12/13 01:53:21;;;;;;;3.65;3.45;;;;;;;-6.99;100.00;100611.53;6050937;23;20615;-73
2022/12/13 01:55:55;;;;;;;2.92;2.83;;;;;;;-6.39;100.00;100715.50;6001744;23;20517;-74
2022/12/13 01:58:21;;;;;;;3.38;3.28;;;;;;;-6.06;100.00;100757.75;6008488;23;20016;-73
2022/12/13 02:00:49;;;;;;;2.30;2.20;;;;;;;-5.91;100.00;100797.97;6038209;23;20278;-73
2022/12/13 02:03:21;;;;;;;6.93;4.03;;;;;;;-5.94;100.00;100795.38;5991862;23;20008;-73
2022/12/13 02:06:15;;;;;;;2.78;2.67;;;;;;;-6.00;100.00;100798.72;6049275;23;20274;-74
2022/12/13 02:08:43;;;;;;;2.67;2.58;;;;;;;-6.21;100.00;100750.69;5999963;23;20403;-74
2022/12/13 02:11:10;;;;;;;2.40;2.30;;;;;;;-5.90;100.00;100781.81;6009585;23;20316;-73
2022/12/13 02:13:37;;;;;;;2.85;2.75;;;;;;;-6.36;100.00;100707.03;6032688;23;20023;-73
2022/12/13 02:16:24;;;;;;;2.85;2.65;;;;;;;-6.91;100.00;100567.44;6012700;23;20675;-74
2022/12/13 02:19:10;;;;;;;2.92;2.72;;;;;;;-6.04;100.00;100703.28;6014530;23;20515;-74
2022/12/13 02:22:14;;;;;;;5.47;4.68;;;;;;;-5.45;100.00;100789.34;5997534;23;20027;-75
2022/12/13 02:25:02;;;;;;;3.38;3.17;;;;;;;-5.39;100.00;100786.03;6052551;23;20030;-75
2022/12/13 02:27:57;;;;;;;4.38;3.97;;;;;;;-5.44;100.00;100783.38;6016661;23;20023;-75
2022/12/13 02:30:38;;;;;;;3.17;3.00;;;;;;;-5.89;100.00;100740.13;6055828;23;20015;-73
2022/12/13 02:33:19;;;;;;;2.70;2.60;;;;;;;-5.87;100.00;100746.97;6011743;23;20025;-74
2022/12/13 02:36:09;;;;;;;5.10;3.72;;;;;;;-5.70;100.00;100782.13;6006466;23;20038;-73
2022/12/13 02:38:44;;;;;;;2.65;2.55;;;;;;;-5.70;100.00;100784.69;6038525;23;20398;-74
2022/12/13 02:41:35;;;;;;;2.20;2.10;;;;;;;-5.71;100.00;100791.50;5991286;23;20074;-74
2022/12/13 02:44:23;;;;;;;5.05;2.85;;;;;;;-5.69;100.00;100786.41;6050557;23;20010;-75
2022/12/13 02:46:58;;;;;;;4.75;3.78;;;;;;;-5.72;100.00;100787.22;6023424;23;20026;-74
2022/12/13 02:49:29;;;;;;;5.13;4.72;;;;;;;-5.70;100.00;100788.09;6007180;23;20073;-74
2022/12/13 02:51:57;;;;;;;4.18;3.97;;;;;;;-6.43;100.00;100673.72;6034438;23;20030;-74
2022/12/13 02:54:24;;;;;;;4.95;4.65;;;;;;;-6.37;100.00;100679.75;6015522;23;20014;-74
2022/12/13 02:56:55;;;;;;;3.33;3.13;;;;;;;-5.78;100.00;100778.59;6052255;23;20494;-74
2022/12/13 02:59:25;;;;;;;2.15;2.05;;;;;;;-6.33;100.00;100705.38;6010846;23;20214;-74
2022/12/13 03:02:12;;;;;;;3.53;3.33;;;;;;;-5.91;100.00;100775.88;6034648;23;20670;-74
2022/12/13 03:08:21;;;;;;;3.70;3.50;;;;;;;-5.95;100.00;100763.03;6008760;23;20277;-75
2022/12/13 03:11:08;;;;;;;2.40;2.30;;;;;;;-5.90;100.00;100761.38;6015388;23;20046;-74
2022/12/13 03:13:53;;;;;;;3.38;2.88;;;;;;;-5.95;100.00;100760.47;5981648;23;20057;-74
2022/12/13 03:16:39;;;;;;;3.03;2.50;;;;;;;-6.15;100.00;100755.91;6051840;23;20014;-73
2022/12/13 03:19:08;;;;;;;3.35;3.15;;;;;;;-6.23;100.00;100752.38;6017468;23;20367;-73
2022/12/13 03:21:38;;;;;;;2.72;2.50;;;;;;;-6.06;100.00;100773.06;6008534;23;20194;-74
2022/12/13 03:24:15;;;;;;;3.67;3.38;;;;;;;-6.20;100.00;100739.63;6006495;23;20026;-73
2022/12/13 03:26:41;;;;;;;2.17;2.08;;;;;;;-6.21;100.00;100745.59;5999510;23;20023;-73
2022/12/13 03:29:07;;;;;;;4.38;3.97;;;;;;;-6.85;100.00;100628.78;6019150;23;20091;-74
2022/12/13 03:31:34;;;;;;;2.40;2.30;;;;;;;-6.43;100.00;100718.84;6013268;23;20029;-74
2022/12/13 03:34:01;;;;;;;4.57;4.28;;;;;;;-6.08;100.00;100779.84;6044300;23;20474;-74
2022/12/13 03:36:27;;;;;;;3.65;3.45;;;;;;;-6.14;100.00;100772.94;5993002;23;20814;-75
2022/12/13 03:38:54;;;;;;;3.15;3.05;;;;;;;-6.19;100.00;100750.72;6023579;23;20034;-74
2022/12/13 03:41:30;;;;;;;3.45;2.85;;;;;;;-6.47;100.00;100715.38;6008907;23;20023;-74
2022/12/13 03:43:58;;;;;;;3.65;3.38;;;;;;;-6.11;100.00;100761.94;6050105;23;20036;-75
2022/12/13 03:46:25;;;;;;;3.28;3.17;;;;;;;-6.32;100.00;100730.06;6008845;23;20071;-74
2022/12/13 03:48:51;;;;;;;2.53;2.42;;;;;;;-6.13;100.00;100763.56;6032635;23;20041;-74
2022/12/13 03:51:20;;;;;;;3.47;3.28;;;;;;;-6.71;100.00;100691.97;6009727;23;20087;-75
2022/12/13 03:53:47;;;;;;;3.33;3.00;;;;;;;-6.46;100.00;100717.06;6055192;23;20037;-74
2022/12/13 03:56:13;;;;;;;3.53;3.33;;;;;;;-6.77;100.00;100677.41;6008930;23;20031;-75
2022/12/13 03:58:43;;;;;;;3.30;3.10;;;;;;;-6.21;100.00;100750.69;6050864;23;20019;-73
2022/12/13 04:01:13;;;;;;;4.30;2.70;;;;;;;-6.17;100.00;100743.94;6008681;23;20085;-76
2022/12/13 04:03:41;;;;;;;7.18;3.58;;;;;;;-6.10;100.00;100746.63;6050017;23;20692;-73
2022/12/13 04:06:08;;;;;;;5.75;5.00;;;;;;;-6.58;100.00;100668.34;6018949;23;20007;-74
2022/12/13 04:08:36;;;;;;;2.50;2.40;;;;;;;-6.48;100.00;100690.66;6012032;23;20019;-75
2022/12/13 04:13:48;;;;;;;2.10;2.00;;;;;;;-6.84;100.00;100644.94;6021332;23;20516;-75
2022/12/13 04:16:14;;;;;;;6.60;3.40;;;;;;;-6.78;100.00;100678.22;6041986;23;20663;-73
2022/12/13 04:18:43;;;;;;;3.30;3.10;;;;;;;-6.68;100.00;100694.56;6005626;23;20046;-73
2022/12/13 04:21:10;;;;;;;3.28;3.08;;;;;;;-6.93;100.00;100660.94;6052392;23;21389;-73
2022/12/13 04:23:36;;;;;;;2.92;2.80;;;;;;;-7.14;100.00;100632.50;6034887;23;20023;-74
2022/12/13 04:26:03;;;;;;;3.50;3.22;;;;;;;-6.74;100.00;100699.56;6017740;23;20011;-75
2022/12/13 04:28:29;;;;;;;3.67;3.38;;;;;;;-6.74;100.00;100699.56;6056077;23;20018;-75
2022/12/13 04:30:56;;;;;;;4.40;4.15;;;;;;;-7.63;100.00;100548.31;6013906;23;20018;-75
2022/12/13 04:33:23;;;;;;;3.15;2.95;;;;;;;-6.51;100.00;100735.72;6008844;23;20026;-76
2022/12/13 04:35:52;;;;;;;2.67;2.58;;;;;;;-6.41;100.00;100747.81;6035923;23;20031;-74
2022/12/13 04:38:18;;;;;;;3.28;3.15;;;;;;;-7.00;100.00;100642.94;5980898;23;20023;-74
2022/12/13 04:40:45;;;;;;;3.00;2.90;;;;;;;-6.33;100.00;100735.19;6030215;23;20033;-74
2022/12/13 04:43:11;;;;;;;2.92;2.78;;;;;;;-6.28;100.00;100749.72;6005461;23;20086;-74
2022/12/13 04:45:38;;;;;;;5.05;4.68;;;;;;;-6.57;100.00;100695.63;6006672;23;20043;-73
2022/12/13 04:48:05;;;;;;;2.80;2.70;;;;;;;-6.19;100.00;100746.47;6007839;23;20034;-74
2022/12/13 04:50:34;;;;;;;7.97;2.95;;;;;;;-6.85;100.00;100644.09;6015805;23;20442;-76
2022/12/13 04:53:01;;;;;;;2.92;2.80;;;;;;;-6.76;100.00;100648.47;6048780;23;20615;-73
2022/12/13 04:55:27;;;;;;;2.83;2.72;;;;;;;-6.53;100.00;100679.53;6027564;23;20018;-73
2022/12/13 04:57:53;;;;;;;3.58;3.38;;;;;;;-6.51;100.00;100679.56;6018981;23;20072;-74
2022/12/13 05:00:21;;;;;;;3.75;3.45;;;;;;;-6.18;100.00;100716.69;5986298;23;20086;-73
2022/12/13 05:02:48;;;;;;;6.50;4.57;;;;;;;-6.47;100.00;100671.97;5995814;23;20027;-73
2022/12/13 05:05:14;;;;;;;3.95;3.75;;;;;;;-6.47;100.00;100666.84;6050323;23;20457;-74
2022/12/13 05:07:41;;;;;;;3.75;3.47;;;;;;;-6.00;100.00;100734.00;6005852;23;20030;-75
2022/12/13 05:10:09;;;;;;;2.63;2.53;;;;;;;-6.39;100.00;100658.44;6008826;23;20025;-75
2022/12/13 05:12:36;;;;;;;3.00;2.75;;;;;;;-5.90;100.00;100730.72;6051498;23;20029;-74
2022/12/13 05:15:03;;;;;;;3.22;3.03;;;;;;;-5.83;100.00;100735.94;6020668;23;20019;-73
2022/12/13 05:17:30;;;;;;;2.80;2.70;;;;;;;-6.48;100.00;100626.81;6024098;23;20034;-73
2022/12/13 05:19:57;;;;;;;2.90;2.70;;;;;;;-6.31;100.00;100664.56;5995864;23;20037;-73
2022/12/13 05:22:23;;;;;;;2.85;2.75;;;;;;;-6.47;100.00;100671.97;6040931;23;20287;-72
2022/12/13 05:24:49;;;;;;;3.53;3.33;;;;;;;-6.62;100.00;100636.81;6008338;23;20031;-75
2022/12/13 05:27:17;;;;;;;3.33;3.13;;;;;;;-5.96;100.00;100749.41;6007338;23;20021;-73
2022/12/13 05:29:55;;;;;;;2.15;2.08;;;;;;;-6.02;100.00;100742.50;6032938;23;20294;-72
2022/12/13 05:32:38;;;;;;;5.50;5.07;;;;;;;-6.48;100.00;100671.94;6009644;23;20015;-73
2022/12/13 05:35:11;;;;;;;3.10;2.90;;;;;;;-6.30;100.00;100686.69;6047200;23;20026;-75
2022/12/13 05:37:38;;;;;;;2.90;2.70;;;;;;;-6.07;100.00;100728.78;6020300;23;20023;-75
2022/12/13 05:40:05;;;;;;;3.22;3.03;;;;;;;-6.62;100.00;100636.81;5980553;23;20011;-73
2022/12/13 05:42:31;;;;;;;3.33;3.13;;;;;;;-6.42;100.00;100685.66;6019286;23;20394;-73
2022/12/13 05:44:58;;;;;;;2.75;2.65;;;;;;;-6.50;100.00;100661.69;6050467;23;20026;-73
2022/12/13 05:47:24;;;;;;;2.60;2.50;;;;;;;-6.39;100.00;100689.09;6023319;23;20030;-74
2022/12/13 05:49:51;;;;;;;2.55;2.45;;;;;;;-6.67;100.00;100633.34;6049597;23;20244;-74
2022/12/13 05:52:21;;;;;;;4.45;4.15;;;;;;;-6.00;100.00;100736.56;6028295;23;20102;-73
2022/12/13 05:54:56;;;;;;;2.80;2.70;;;;;;;-6.18;100.00;100709.88;6008754;23;20039;-76
2022/12/13 05:57:26;;;;;;;4.78;4.38;;;;;;;-6.96;100.00;100599.66;6041055;23;20237;-73
2022/12/13 05:59:53;;;;;;;2.60;2.50;;;;;;;-7.08;100.00;100573.94;6015910;23;20461;-73
2022/12/13 06:02:19;;;;;;;2.42;2.33;;;;;;;-7.22;100.00;100596.66;6022769;23;20537;-74
2022/12/13 06:04:47;;;;;;;3.97;3.53;;;;;;;-6.34;100.00;100754.72;6053489;23;20230;-74
2022/12/13 06:07:13;;;;;;;3.67;3.33;;;;;;;-6.82;100.00;100668.78;5992604;23;20102;-73
2022/12/13 06:09:40;;;;;;;3.10;2.40;;;;;;;-7.73;100.00;100514.16;6002587;23;20019;-73
2022/12/13 06:12:08;;;;;;;3.60;3.33;;;;;;;-6.33;100.00;100755.59;6020992;23;20355;-74
2022/12/13 06:14:54;;;;;;;3.67;3.47;;;;;;;-6.73;100.00;100698.72;6013865;23;20023;-75
2022/12/13 06:17:35;;;;;;;2.97;2.88;;;;;;;-6.52;100.00;100729.72;6009242;23;20277;-76
2022/12/13 06:20:03;;;;;;;8.07;3.55;;;;;;;-6.99;100.00;100655.75;6031650;23;20017;-73
2022/12/13 06:22:51;;;;;;;2.20;2.10;;;;;;;-7.00;100.00;100658.25;6002743;23;20033;-75
2022/12/13 06:25:18;;;;;;;3.10;2.97;;;;;;;-6.56;100.00;100730.50;6012470;23;20287;-74
2022/12/13 06:27:56;;;;;;;3.40;3.20;;;;;;;-6.86;100.00;100692.53;6049622;23;20058;-74
2022/12/13 06:30:26;;;;;;;2.60;2.40;;;;;;;-6.42;100.00;100754.59;6012701;23;20025;-74
2022/12/13 06:32:52;;;;;;;2.70;2.60;;;;;;;-6.78;100.00;100693.53;6046893;23;20686;-73
2022/12/13 06:35:19;;;;;;;3.83;3.50;;;;;;;-7.14;100.00;100628.25;6035198;23;20018;-73
2022/12/13 06:37:57;;;;;;;2.35;2.25;;;;;;;-6.63;100.00;100705.72;5990317;23;20497;-73
2022/12/13 06:40:27;;;;;;;5.30;3.45;;;;;;;-7.05;100.00;100648.81;6056129;23;20033;-73
2022/12/13 06:42:54;;;;;;;3.55;3.10;;;;;;;-6.99;100.00;100663.38;6007614;23;20413;-73
2022/12/13 06:45:23;;;;;;;3.72;3.42;;;;;;;-6.47;100.00;100752.81;5998715;23;20030;-74
2022/12/13 06:47:49;;;;;;;2.55;2.45;;;;;;;-7.04;100.00;100657.34;6007059;23;20030;-74
2022/12/13 06:50:16;;;;;;;2.55;2.45;;;;;;;-8.15;100.00;100458.16;6028395;23;20033;-72
2022/12/13 06:52:45;;;;;;;2.38;2.28;;;;;;;-6.70;100.00;100732.81;6001157;23;20085;-74
2022/12/13 06:55:11;;;;;;;3.30;3.13;;;;;;;-7.06;100.00;100659.00;6008144;23;20148;-75
2022/12/13 06:57:38;;;;;;;2.45;2.35;;;;;;;-7.27;100.00;100622.06;6052924;23;20026;-74
2022/12/13 07:00:07;;;;;;;4.18;2.85;;;;;;;-6.59;100.00;100743.22;6005114;23;20219;-73
2022/12/13 07:02:34;;;;;;;3.47;3.20;;;;;;;-6.64;100.00;100743.13;5987720;23;20167;-73
2022/12/13 07:05:00;;;;;;;2.92;2.83;;;;;;;-7.11;100.00;100664.00;6038213;23;20034;-74
2022/12/13 07:07:27;;;;;;;3.45;3.15;;;;;;;-7.35;100.00;100625.31;6005863;23;20034;-73
2022/12/13 07:09:53;;;;;;;3.75;3.47;;;;;;;-7.10;100.00;100668.28;6028694;23;20027;-73
2022/12/13 07:12:20;;;;;;;2.13;2.05;;;;;;;-6.71;100.00;100725.13;5999265;23;20294;-73
2022/12/13 07:14:46;;;;;;;3.20;3.08;;;;;;;-7.37;100.00;100612.53;6036045;23;20263;-75
2022/12/13 07:17:13;;;;;;;3.83;3.63;;;;;;;-7.88;100.00;100524.91;5998844;23;20061;-74
2022/12/13 07:20:01;;;;;;;3.85;3.55;;;;;;;-7.18;100.00;100625.63;6055762;23;20096;-74
2022/12/13 07:22:27;;;;;;;3.28;3.08;;;;;;;-7.26;100.00;100613.56;5991801;23;20027;-73
2022/12/13 07:25:07;;;;;;;3.10;2.90;;;;;;;-6.43;100.00;100741.81;6012179;23;20019;-73
2022/12/13 07:27:56;;;;;;;3.08;2.80;;;;;;;-6.83;100.00;100664.53;6010648;23;20391;-74
2022/12/13 07:30:33;;;;;;;2.67;2.50;;;;;;;-6.26;100.00;100745.50;6010959;23;20050;-74
2022/12/13 07:33:08;;;;;;;2.58;2.47;;;;;;;-6.18;100.00;100753.28;6050913;23;20174;-75
2022/12/13 07:35:34;;;;;;;4.55;4.25;;;;;;;-6.49;100.00;100701.72;6009440;23;20051;-74
2022/12/13 07:38:03;;;;;;;3.03;2.83;;;;;;;-6.04;100.00;100753.53;6035129;23;20510;-73
2022/12/13 07:40:32;;;;;;;3.58;3.38;;;;;;;-6.43;100.00;100683.94;6003995;23;20043;-73
2022/12/13 07:42:58;;;;;;;2.58;2.47;;;;;;;-5.94;100.00;100745.13;6050015;23;20340;-75
2022/12/13 07:45:25;;;;;;;2.78;2.58;;;;;;;-6.21;100.00;100704.72;6013191;23;20068;-73
2022/12/13 07:47:51;;;;;;;2.97;2.88;;;;;;;-6.46;100.00;100673.66;6017712;23;20089;-74
2022/12/13 07:50:21;;;;;;;2.33;2.22;;;;;;;-6.06;100.00;100735.59;6044978;23;20122;-73
2022/12/13 07:52:51;;;;;;;2.17;2.08;;;;;;;-5.91;100.00;100750.31;6027085;23;20593;-74
2022/12/13 07:55:18;;;;;;;2.80;2.70;;;;;;;-6.53;100.00;100638.69;6037855;23;20043;-75
2022/12/13 07:58:08;;;;;;;3.55;3.35;;;;;;;-6.23;100.00;100681.72;6013288;23;20105;-75
2022/12/13 08:00:36;;;;;;;3.67;3.40;;;;;;;-6.10;100.00;100697.22;6001859;23;20023;-74
2022/12/13 08:03:04;;;;;;;4.55;2.88;;;;;;;-5.72;100.00;100753.16;6035885;23;20196;-74
2022/12/13 08:05:33;;;;;;;5.32;4.82;;;;;;;-5.64;100.00;100749.84;6013708;23;20031;-74
2022/12/13 08:08:08;;;;;;;3.22;2.92;;;;;;;-5.91;100.00;100693.22;6052444;23;20026;-75
2022/12/13 08:10:35;;;;;;;2.92;2.80;;;;;;;-5.53;100.00;100744.03;6007947;23;20312;-74
2022/12/13 08:13:02;;;;;;;2.72;2.63;;;;;;;-5.41;100.00;100757.88;6008664;23;20096;-74
2022/12/13 08:15:29;;;;;;;2.58;2.47;;;;;;;-5.36;100.00;100763.03;6030735;23;20034;-75
2022/12/13 08:18:02;;;;;;;2.20;2.05;;;;;;;-5.82;100.00;100694.22;6007059;23;20422;-75
2022/12/13 08:20:29;;;;;;;2.72;2.63;;;;;;;-5.67;100.00;100729.38;5980127;23;20035;-75
2022/12/13 08:22:57;;;;;;;2.75;2.65;;;;;;;-5.35;100.00;100764.78;6029656;23;20313;-74
2022/12/13 08:25:28;;;;;;;6.00;3.75;;;;;;;-5.47;100.00;100752.66;6002867;23;20529;-74
2022/12/13 08:27:54;;;;;;;2.17;2.08;;;;;;;-5.93;100.00;100660.00;6011836;23;20021;-74
2022/12/13 08:30:27;;;;;;;5.82;4.28;;;;;;;-5.73;100.00;100698.63;6023169;23;20245;-74
2022/12/13 08:32:54;;;;;;;2.97;2.85;;;;;;;-5.53;100.00;100731.25;6003531;23;20039;-74
2022/12/13 08:35:21;;;;;;;3.40;3.15;;;;;;;-5.41;100.00;100751.91;6011610;23;20325;-73
2022/12/13 08:37:47;;;;;;;4.65;3.83;;;;;;;-5.41;100.00;100741.66;6028806;23;20424;-74
2022/12/13 08:40:14;;;;;;;6.15;3.00;;;;;;;-5.75;100.00;100681.50;6004212;23;20507;-76
2022/12/13 08:42:40;;;;;;;2.47;2.38;;;;;;;-5.12;100.00;100779.56;5981338;23;20128;-73
2022/12/13 08:45:07;;;;;;;3.47;3.28;;;;;;;-5.54;100.00;100712.50;6046923;23;20033;-74
2022/12/13 08:47:34;;;;;;;5.53;5.22;;;;;;;-5.22;100.00;100748.72;6010230;23;20031;-74
2022/12/13 08:50:07;;;;;;;2.25;2.15;;;;;;;-5.81;100.00;100646.53;6023582;23;20398;-75
2022/12/13 08:52:34;;;;;;;3.40;3.20;;;;;;;-4.93;100.00;100781.53;6023272;23;20026;-76
2022/12/13 08:55:07;;;;;;;1.92;1.90;;;;;;;-4.90;100.00;100776.41;5985591;23;20113;-75
2022/12/13 08:57:35;;;;;;;3.25;3.08;;;;;;;-4.92;100.00;100778.09;6011185;23;20045;-74
2022/12/13 09:00:04;;;;;;;2.90;2.80;;;;;;;-5.27;100.00;100721.38;6050619;23;20028;-74
2022/12/13 09:02:30;;;;;;;2.85;2.75;;;;;;;-4.96;100.00;100770.38;6026219;23;20094;-75
2022/12/13 09:05:04;;;;;;;2.50;2.40;;;;;;;-4.86;100.00;100779.88;6013197;23;20286;-75
2022/12/13 09:07:30;;;;;;;2.55;2.45;;;;;;;-5.56;100.00;100683.50;6022415;23;20035;-74
2022/12/13 09:09:57;;;;;;;3.10;2.83;;;;;;;-5.15;100.00;100729.22;6048387;23;20030;-74
2022/12/13 09:12:32;;;;;;;4.18;3.90;;;;;;;-4.78;100.00;100792.78;5995234;23;20464;-75
2022/12/13 09:15:07;;;;;;;3.63;3.42;;;;;;;-5.74;100.00;100630.44;6045130;23;20097;-75
2022/12/13 09:17:50;;;;;;;5.30;3.10;;;;;;;-4.81;100.00;100774.00;6012487;23;20155;-75
2022/12/13 09:20:19;;;;;;;2.20;2.10;;;;;;;-4.97;100.00;100737.94;6022495;23;20122;-76
2022/12/13 09:23:05;;;;;;;2.75;2.65;;;;;;;-4.82;100.00;100758.59;6002634;23;20101;-75
2022/12/13 09:25:39;;;;;;;2.50;2.40;;;;;;;-4.49;100.00;100801.66;6024804;23;20128;-76
2022/12/13 09:28:07;;;;;;;10.77;2.72;;;;;;;-4.49;100.00;100768.38;6029743;23;20029;-76
2022/12/13 09:30:36;;;;;;;3.35;3.15;;;;;;;-4.57;100.00;100734.13;6019853;23;20023;-75
2022/12/13 09:33:03;;;;;;;7.25;4.35;;;;;;;-4.19;100.00;100796.81;6010207;23;20221;-73
2022/12/13 09:35:51;;;;;;;2.10;2.00;;;;;;;-3.99;100.00;100825.19;6017408;23;20243;-75
2022/12/13 09:38:20;;;;;;;2.85;2.72;;;;;;;-4.25;100.00;100772.88;6039252;23;20086;-75
2022/12/13 09:40:52;;;;;;;2.45;2.35;;;;;;;-4.17;100.00;100785.72;5992467;23;20457;-77
2022/12/13 09:43:28;;;;;;;2.15;2.05;;;;;;;-4.37;100.00;100739.47;6049471;23;20215;-77
2022/12/13 09:46:07;;;;;;;3.60;3.35;;;;;;;-4.06;100.00;100763.63;6000689;23;20047;-75
2022/12/13 09:48:50;;;;;;;3.85;3.58;;;;;;;-4.04;100.00;100772.19;6026355;23;20090;-77
2022/12/13 09:51:17;;;;;;;5.13;3.33;;;;;;;-3.81;100.00;100802.28;6024501;23;20011;-76
2022/12/13 09:54:03;;;;;;;2.30;2.20;;;;;;;-4.05;100.00;100780.75;6026748;23;20014;-74
2022/12/13 09:56:32;;;;;;;3.38;3.17;;;;;;;-3.77;100.00;100826.25;6005606;23;20044;-76
2022/12/13 09:58:58;;;;;;;4.97;3.40;;;;;;;-4.15;100.00;100773.81;5999366;23;20102;-76
2022/12/13 10:01:24;;;;;;;3.08;2.88;;;;;;;-4.16;100.00;100759.28;6033713;23;20216;-76
2022/12/13 10:03:54;;;;;;;4.32;3.30;;;;;;;-4.61;100.00;100641.06;6015117;23;20023;-77
2022/12/13 10:06:23;;;;;;;3.03;2.92;;;;;;;-4.11;100.00;100719.19;6030138;23;21736;-75
2022/12/13 10:08:53;;;;;;;2.55;2.45;;;;;;;-3.45;100.00;100824.81;6012830;23;20031;-75
2022/12/13 10:11:25;;;;;;;3.13;2.92;;;;;;;-3.25;100.00;100842.91;6035087;23;20028;-77
2022/12/13 10:14:08;;;;;;;2.95;2.85;;;;;;;-3.34;100.00;100817.19;6008909;23;20034;-77
2022/12/13 10:16:35;;;;;;;2.72;2.60;;;;;;;-3.11;100.00;100837.00;6023467;23;20035;-75
2022/12/13 10:19:33;;;;;;;2.67;2.58;;;;;;;-2.94;100.00;100827.69;6040980;23;20013;-76
2022/12/13 10:22:02;;;;;;;2.72;2.63;;;;;;;-3.40;100.00;100750.44;6008244;23;20434;-76
2022/12/13 10:24:47;;;;;;;2.70;2.60;;;;;;;-3.08;100.00;100777.97;5982727;23;20031;-75
2022/12/13 10:27:17;;;;;;;2.80;2.67;;;;;;;-2.67;100.00;100828.66;6046864;23;20018;-75
2022/12/13 10:29:58;;;;;;;5.38;3.92;;;;;;;-3.76;100.00;100633.97;6030350;23;20242;-76
2022/12/13 10:32:25;;;;;;;2.40;2.30;;;;;;;-2.89;100.00;100760.94;6004227;23;20430;-76
2022/12/13 10:34:54;;;;;;;6.30;4.18;;;;;;;-2.58;100.00;100795.31;6028860;23;20586;-75
2022/12/13 10:37:29;;;;;;;8.85;5.22;;;;;;;-3.16;100.00;100677.84;6020993;23;20284;-76
2022/12/13 10:39:57;;;;;;;3.72;3.53;;;;;;;-2.48;100.00;100763.63;6055545;23;20076;-77
2022/12/13 10:42:24;;;;;;;3.05;2.88;;;;;;;-2.73;100.00;100713.06;5997543;23;20434;-77
2022/12/13 10:45:20;;;;;;;3.05;2.95;;;;;;;-2.19;100.00;100772.25;6044065;23;20026;-75
2022/12/13 10:47:49;;;;;;;3.35;3.05;;;;;;;-3.55;100.00;100522.03;5974870;23;20111;-77
2022/12/13 10:50:28;;;;;;;4.28;3.33;;;;;;;-2.17;100.00;100744.84;6057454;23;20038;-75
2022/12/13 10:52:57;;;;;;;3.85;3.65;;;;;;;-1.79;100.00;100786.00;5983293;23;20197;-75
2022/12/13 10:55:25;;;;;;;3.92;3.65;;;;;;;-1.62;100.00;100775.72;6003825;23;20089;-75
2022/12/13 10:57:56;;;;;;;2.80;2.70;;;;;;;-1.50;98.04;100775.69;6035744;23;20019;-75
2022/12/13 11:00:32;;;;;;;2.42;2.33;;;;;;;-1.55;96.89;100750.81;5994843;23;20008;-76
2022/12/13 11:02:59;;;;;;;3.60;3.40;;;;;;;-1.39;96.17;100755.06;6045065;23;20281;-75
2022/12/13 11:05:32;;;;;;;3.20;3.10;;;;;;;-1.40;94.22;100750.78;6021090;23;20022;-74
2022/12/13 11:08:22;;;;;;;4.88;3.72;;;;;;;-1.46;93.41;100745.66;6049090;23;20076;-75
2022/12/13 11:11:01;;;;;;;3.28;3.17;;;;;;;-1.95;92.04;100659.09;5995029;23;20039;-75
2022/12/13 11:14:15;;;;;;;4.28;3.97;;;;;;;-1.29;91.49;100723.28;6014669;23;20023;-75
2022/12/13 11:16:48;;;;;;;3.85;3.65;;;;;;;-1.32;90.69;100715.59;5880851;24;20431;-76
2022/12/13 11:19:31;;;;;;;13.18;5.68;;;;;;;-1.58;89.96;100664.19;5922840;24;20036;-76
2022/12/13 11:22:00;;;;;;;3.72;3.53;;;;;;;-1.75;89.90;100635.06;5995217;23;20094;-76
2022/12/13 11:24:31;;;;;;;4.07;3.80;;;;;;;-2.01;89.41;100581.97;6009048;23;20463;-76
2022/12/13 11:27:18;;;;;;;3.40;3.20;;;;;;;-1.86;89.46;100576.81;6039088;23;20033;-75
2022/12/13 11:30:16;;;;;;;3.10;2.97;;;;;;;-0.87;89.61;100699.94;6008657;23;20068;-76
2022/12/13 11:33:04;;;;;;;3.80;3.50;;;;;;;-0.71;88.43;100686.09;5986192;23;20230;-76
2022/12/13 11:35:59;;;;;;;5.93;3.97;;;;;;;-0.70;87.75;100666.34;6050874;23;20026;-76
2022/12/13 11:38:47;;;;;;;3.97;3.25;;;;;;;-0.51;86.75;100679.97;5984897;23;20040;-76
2022/12/13 11:41:23;;;;;;;2.70;2.60;;;;;;;-1.09;85.39;100563.53;6008125;23;20023;-75
2022/12/13 11:44:04;;;;;;;4.50;4.18;;;;;;;-0.62;84.02;100624.19;6016779;23;20175;-76